sensor_id;sensor_type;location;lat;lon;timestamp;temperature;humidity
21622;DHT22;10973;46.706;12.340;2023-10-08T00:00:00;12.20;98.40
21622;DHT22;10973;46.706;12.340;2023-10-08T00:02:27;12.20;98.50
21622;DHT22;10973;46.706;12.340;2023-10-08T00:04:55;12.20;98.40
21622;DHT22;10973;46.706;12.340;2023-10-08T00:07:22;12.10;98.50
21622;DHT22;10973;46.706;12.340;2023-10-08T00:09:51;12.20;98.70
21622;DHT22;10973;46.706;12.340;2023-10-08T00:12:19;12.30;98.60
21622;DHT22;10973;46.706;12.340;2023-10-08T00:14:47;12.30;98.50
21622;DHT22;10973;46.706;12.340;2023-10-08T00:17:16;12.20;98.50
21622;DHT22;10973;46.706;12.340;2023-10-08T00:19:44;12.30;98.60
21622;DHT22;10973;46.706;12.340;2023-10-08T00:22:11;12.30;98.80
21622;DHT22;10973;46.706;12.340;2023-10-08T00:24:40;12.30;99.20
21622;DHT22;10973;46.706;12.340;2023-10-08T00:27:08;12.30;99.20
21622;DHT22;10973;46.706;12.340;2023-10-08T00:29:36;12.30;99.40
21622;DHT22;10973;46.706;12.340;2023-10-08T00:32:04;12.20;99.30
21622;DHT22;10973;46.706;12.340;2023-10-08T00:34:31;12.20;99.00
21622;DHT22;10973;46.706;12.340;2023-10-08T00:36:58;12.20;99.30
21622;DHT22;10973;46.706;12.340;2023-10-08T00:39:26;12.20;99.30
21622;DHT22;10973;46.706;12.340;2023-10-08T00:41:54;12.20;99.60
21622;DHT22;10973;46.706;12.340;2023-10-08T00:44:21;12.20;99.50
21622;DHT22;10973;46.706;12.340;2023-10-08T00:46:49;12.20;99.90
21622;DHT22;10973;46.706;12.340;2023-10-08T00:49:24;12.10;99.80
21622;DHT22;10973;46.706;12.340;2023-10-08T00:51:55;12.10;99.90
21622;DHT22;10973;46.706;12.340;2023-10-08T00:54:24;12.20;99.90
21622;DHT22;10973;46.706;12.340;2023-10-08T00:56:52;12.10;99.90
21622;DHT22;10973;46.706;12.340;2023-10-08T00:59:19;12.20;99.90
21622;DHT22;10973;46.706;12.340;2023-10-08T01:01:48;12.20;99.90
21622;DHT22;10973;46.706;12.340;2023-10-08T01:04:17;12.20;99.90
21622;DHT22;10973;46.706;12.340;2023-10-08T01:06:46;12.30;99.90
21622;DHT22;10973;46.706;12.340;2023-10-08T01:09:14;12.30;99.90
21622;DHT22;10973;46.706;12.340;2023-10-08T01:11:41;12.30;99.90
21622;DHT22;10973;46.706;12.340;2023-10-08T01:14:09;12.30;99.90
21622;DHT22;10973;46.706;12.340;2023-10-08T01:16:36;12.40;99.90
21622;DHT22;10973;46.706;12.340;2023-10-08T01:19:04;12.30;99.80
21622;DHT22;10973;46.706;12.340;2023-10-08T01:21:31;12.20;99.90
21622;DHT22;10973;46.706;12.340;2023-10-08T01:24:00;12.20;99.90
21622;DHT22;10973;46.706;12.340;2023-10-08T01:26:28;12.20;99.90
21622;DHT22;10973;46.706;12.340;2023-10-08T01:28:56;12.20;99.90
21622;DHT22;10973;46.706;12.340;2023-10-08T01:31:23;12.20;99.90
21622;DHT22;10973;46.706;12.340;2023-10-08T01:33:50;12.20;99.90
21622;DHT22;10973;46.706;12.340;2023-10-08T01:36:18;12.20;99.90
21622;DHT22;10973;46.706;12.340;2023-10-08T01:38:45;12.20;99.90
21622;DHT22;10973;46.706;12.340;2023-10-08T01:41:13;12.10;99.90
21622;DHT22;10973;46.706;12.340;2023-10-08T01:43:41;12.10;99.90
21622;DHT22;10973;46.706;12.340;2023-10-08T01:46:08;12.10;99.90
21622;DHT22;10973;46.706;12.340;2023-10-08T01:48:36;12.20;99.90
21622;DHT22;10973;46.706;12.340;2023-10-08T01:51:03;12.20;99.90
21622;DHT22;10973;46.706;12.340;2023-10-08T01:53:31;12.20;99.90
21622;DHT22;10973;46.706;12.340;2023-10-08T01:55:58;12.20;99.90
21622;DHT22;10973;46.706;12.340;2023-10-08T01:58:26;12.20;99.90
21622;DHT22;10973;46.706;12.340;2023-10-08T02:00:54;12.30;99.90
21622;DHT22;10973;46.706;12.340;2023-10-08T02:03:21;12.30;99.90
21622;DHT22;10973;46.706;12.340;2023-10-08T02:05:49;12.20;99.90
21622;DHT22;10973;46.706;12.340;2023-10-08T02:08:17;12.20;99.90
21622;DHT22;10973;46.706;12.340;2023-10-08T02:10:44;12.20;99.90
21622;DHT22;10973;46.706;12.340;2023-10-08T02:13:13;12.20;99.90
21622;DHT22;10973;46.706;12.340;2023-10-08T02:15:45;12.20;99.90
21622;DHT22;10973;46.706;12.340;2023-10-08T02:18:15;12.20;99.90
21622;DHT22;10973;46.706;12.340;2023-10-08T02:20:43;12.20;99.90
21622;DHT22;10973;46.706;12.340;2023-10-08T02:23:11;12.10;99.90
21622;DHT22;10973;46.706;12.340;2023-10-08T02:25:39;12.20;99.90
21622;DHT22;10973;46.706;12.340;2023-10-08T02:28:08;12.20;99.90
21622;DHT22;10973;46.706;12.340;2023-10-08T02:30:36;12.10;99.90
21622;DHT22;10973;46.706;12.340;2023-10-08T02:33:07;12.10;99.90
21622;DHT22;10973;46.706;12.340;2023-10-08T02:35:34;12.20;99.90
21622;DHT22;10973;46.706;12.340;2023-10-08T02:38:02;12.20;99.90
21622;DHT22;10973;46.706;12.340;2023-10-08T02:40:30;12.30;99.90
21622;DHT22;10973;46.706;12.340;2023-10-08T02:42:57;12.20;99.90
21622;DHT22;10973;46.706;12.340;2023-10-08T02:45:28;12.20;99.90
21622;DHT22;10973;46.706;12.340;2023-10-08T02:47:56;12.20;99.90
21622;DHT22;10973;46.706;12.340;2023-10-08T02:50:24;12.20;99.90
21622;DHT22;10973;46.706;12.340;2023-10-08T02:52:51;12.20;99.90
21622;DHT22;10973;46.706;12.340;2023-10-08T02:55:19;12.30;99.90
21622;DHT22;10973;46.706;12.340;2023-10-08T02:57:46;12.20;99.90
21622;DHT22;10973;46.706;12.340;2023-10-08T03:00:23;12.20;99.90
21622;DHT22;10973;46.706;12.340;2023-10-08T03:02:52;12.20;99.90
21622;DHT22;10973;46.706;12.340;2023-10-08T03:05:20;12.10;99.90
21622;DHT22;10973;46.706;12.340;2023-10-08T03:07:52;12.10;99.90
21622;DHT22;10973;46.706;12.340;2023-10-08T03:10:23;12.00;99.90
21622;DHT22;10973;46.706;12.340;2023-10-08T03:12:51;12.00;99.90
21622;DHT22;10973;46.706;12.340;2023-10-08T03:15:18;12.00;99.90
21622;DHT22;10973;46.706;12.340;2023-10-08T03:17:46;12.00;99.90
21622;DHT22;10973;46.706;12.340;2023-10-08T03:20:17;12.00;99.90
21622;DHT22;10973;46.706;12.340;2023-10-08T03:22:45;12.10;99.90
21622;DHT22;10973;46.706;12.340;2023-10-08T03:25:13;12.10;99.90
21622;DHT22;10973;46.706;12.340;2023-10-08T03:27:40;12.10;99.90
21622;DHT22;10973;46.706;12.340;2023-10-08T03:30:08;12.10;99.90
21622;DHT22;10973;46.706;12.340;2023-10-08T03:32:36;12.10;99.90
21622;DHT22;10973;46.706;12.340;2023-10-08T03:35:04;12.10;99.90
21622;DHT22;10973;46.706;12.340;2023-10-08T03:37:32;12.10;99.90
21622;DHT22;10973;46.706;12.340;2023-10-08T03:39:59;12.10;99.90
21622;DHT22;10973;46.706;12.340;2023-10-08T03:42:27;12.10;99.90
21622;DHT22;10973;46.706;12.340;2023-10-08T03:44:54;12.10;99.90
21622;DHT22;10973;46.706;12.340;2023-10-08T03:47:22;12.10;99.90
21622;DHT22;10973;46.706;12.340;2023-10-08T03:49:50;12.20;99.90
21622;DHT22;10973;46.706;12.340;2023-10-08T03:52:18;12.20;99.90
21622;DHT22;10973;46.706;12.340;2023-10-08T03:54:46;12.20;99.90
21622;DHT22;10973;46.706;12.340;2023-10-08T03:57:13;12.10;99.90
21622;DHT22;10973;46.706;12.340;2023-10-08T03:59:41;12.10;99.90
21622;DHT22;10973;46.706;12.340;2023-10-08T04:02:09;12.10;99.90
21622;DHT22;10973;46.706;12.340;2023-10-08T04:04:36;12.10;99.90
21622;DHT22;10973;46.706;12.340;2023-10-08T04:07:04;12.10;99.90
21622;DHT22;10973;46.706;12.340;2023-10-08T04:09:31;12.10;99.90
21622;DHT22;10973;46.706;12.340;2023-10-08T04:11:59;12.10;99.90
21622;DHT22;10973;46.706;12.340;2023-10-08T04:14:27;12.10;99.90
21622;DHT22;10973;46.706;12.340;2023-10-08T04:16:54;12.10;99.90
21622;DHT22;10973;46.706;12.340;2023-10-08T04:19:23;12.10;99.90
21622;DHT22;10973;46.706;12.340;2023-10-08T04:21:51;12.20;99.90
21622;DHT22;10973;46.706;12.340;2023-10-08T04:24:18;12.10;99.90
21622;DHT22;10973;46.706;12.340;2023-10-08T04:26:46;12.10;99.90
21622;DHT22;10973;46.706;12.340;2023-10-08T04:29:15;12.10;99.90
21622;DHT22;10973;46.706;12.340;2023-10-08T04:31:42;12.10;99.90
21622;DHT22;10973;46.706;12.340;2023-10-08T04:34:10;12.10;99.90
21622;DHT22;10973;46.706;12.340;2023-10-08T04:36:38;12.10;99.90
21622;DHT22;10973;46.706;12.340;2023-10-08T04:39:05;12.10;99.90
21622;DHT22;10973;46.706;12.340;2023-10-08T04:41:33;12.10;99.90
21622;DHT22;10973;46.706;12.340;2023-10-08T04:44:00;12.10;99.90
21622;DHT22;10973;46.706;12.340;2023-10-08T04:46:28;12.10;99.90
21622;DHT22;10973;46.706;12.340;2023-10-08T04:48:55;12.10;99.90
21622;DHT22;10973;46.706;12.340;2023-10-08T04:51:23;12.10;99.90
21622;DHT22;10973;46.706;12.340;2023-10-08T04:53:50;12.00;99.90
21622;DHT22;10973;46.706;12.340;2023-10-08T04:56:18;12.00;99.90
21622;DHT22;10973;46.706;12.340;2023-10-08T04:58:47;11.90;99.90
21622;DHT22;10973;46.706;12.340;2023-10-08T05:01:16;12.00;99.90
21622;DHT22;10973;46.706;12.340;2023-10-08T05:06:17;11.90;99.90
21622;DHT22;10973;46.706;12.340;2023-10-08T05:08:45;11.90;99.90
21622;DHT22;10973;46.706;12.340;2023-10-08T05:11:14;11.80;99.90
21622;DHT22;10973;46.706;12.340;2023-10-08T05:13:42;11.80;99.90
21622;DHT22;10973;46.706;12.340;2023-10-08T05:16:09;11.90;99.90
21622;DHT22;10973;46.706;12.340;2023-10-08T05:18:37;11.90;99.90
21622;DHT22;10973;46.706;12.340;2023-10-08T05:21:04;11.90;99.90
21622;DHT22;10973;46.706;12.340;2023-10-08T05:23:33;11.90;99.90
21622;DHT22;10973;46.706;12.340;2023-10-08T05:26:03;11.90;99.90
21622;DHT22;10973;46.706;12.340;2023-10-08T05:28:31;11.80;99.90
21622;DHT22;10973;46.706;12.340;2023-10-08T05:31:08;11.80;99.90
21622;DHT22;10973;46.706;12.340;2023-10-08T05:33:37;11.80;99.90
21622;DHT22;10973;46.706;12.340;2023-10-08T05:36:04;11.80;99.90
21622;DHT22;10973;46.706;12.340;2023-10-08T05:38:32;11.80;99.90
21622;DHT22;10973;46.706;12.340;2023-10-08T05:40:59;11.80;99.90
21622;DHT22;10973;46.706;12.340;2023-10-08T05:46:00;11.80;99.90
21622;DHT22;10973;46.706;12.340;2023-10-08T05:48:27;11.70;99.90
21622;DHT22;10973;46.706;12.340;2023-10-08T05:50:55;11.80;99.90
21622;DHT22;10973;46.706;12.340;2023-10-08T05:53:34;11.80;99.90
21622;DHT22;10973;46.706;12.340;2023-10-08T05:56:04;11.80;99.90
21622;DHT22;10973;46.706;12.340;2023-10-08T05:58:32;11.80;99.90
21622;DHT22;10973;46.706;12.340;2023-10-08T06:01:00;11.90;99.90
21622;DHT22;10973;46.706;12.340;2023-10-08T06:03:28;11.90;99.90
21622;DHT22;10973;46.706;12.340;2023-10-08T06:05:55;12.00;99.90
21622;DHT22;10973;46.706;12.340;2023-10-08T06:08:23;12.00;99.90
21622;DHT22;10973;46.706;12.340;2023-10-08T06:10:51;12.00;99.90
21622;DHT22;10973;46.706;12.340;2023-10-08T06:13:18;12.10;99.90
21622;DHT22;10973;46.706;12.340;2023-10-08T06:15:47;12.10;99.90
21622;DHT22;10973;46.706;12.340;2023-10-08T06:18:20;12.10;99.90
21622;DHT22;10973;46.706;12.340;2023-10-08T06:20:49;12.10;99.90
21622;DHT22;10973;46.706;12.340;2023-10-08T06:23:17;12.10;99.90
21622;DHT22;10973;46.706;12.340;2023-10-08T06:25:47;12.20;99.90
21622;DHT22;10973;46.706;12.340;2023-10-08T06:28:17;12.20;99.90
21622;DHT22;10973;46.706;12.340;2023-10-08T06:30:45;12.20;99.90
21622;DHT22;10973;46.706;12.340;2023-10-08T06:33:14;12.30;99.90
21622;DHT22;10973;46.706;12.340;2023-10-08T06:35:42;12.30;99.90
21622;DHT22;10973;46.706;12.340;2023-10-08T06:38:11;12.40;99.90
21622;DHT22;10973;46.706;12.340;2023-10-08T06:40:38;12.40;99.90
21622;DHT22;10973;46.706;12.340;2023-10-08T06:43:06;12.50;99.90
21622;DHT22;10973;46.706;12.340;2023-10-08T06:45:34;12.50;99.90
21622;DHT22;10973;46.706;12.340;2023-10-08T06:48:01;12.50;99.90
21622;DHT22;10973;46.706;12.340;2023-10-08T06:50:29;12.60;99.90
21622;DHT22;10973;46.706;12.340;2023-10-08T06:52:57;12.70;99.90
21622;DHT22;10973;46.706;12.340;2023-10-08T06:55:25;12.80;99.90
21622;DHT22;10973;46.706;12.340;2023-10-08T06:57:52;12.90;99.90
21622;DHT22;10973;46.706;12.340;2023-10-08T07:00:20;13.00;99.90
21622;DHT22;10973;46.706;12.340;2023-10-08T07:02:48;13.00;99.90
21622;DHT22;10973;46.706;12.340;2023-10-08T07:05:15;13.10;99.90
21622;DHT22;10973;46.706;12.340;2023-10-08T07:07:43;13.10;99.90
21622;DHT22;10973;46.706;12.340;2023-10-08T07:10:10;13.20;99.90
21622;DHT22;10973;46.706;12.340;2023-10-08T07:12:38;13.30;99.90
21622;DHT22;10973;46.706;12.340;2023-10-08T07:15:06;13.40;99.90
21622;DHT22;10973;46.706;12.340;2023-10-08T07:17:34;13.50;99.90
21622;DHT22;10973;46.706;12.340;2023-10-08T07:20:02;13.60;99.90
21622;DHT22;10973;46.706;12.340;2023-10-08T07:22:30;13.60;99.90
21622;DHT22;10973;46.706;12.340;2023-10-08T07:24:59;13.70;99.90
21622;DHT22;10973;46.706;12.340;2023-10-08T07:27:26;13.70;99.90
21622;DHT22;10973;46.706;12.340;2023-10-08T07:29:54;13.80;99.90
21622;DHT22;10973;46.706;12.340;2023-10-08T07:32:26;13.90;99.90
21622;DHT22;10973;46.706;12.340;2023-10-08T07:34:58;14.00;99.90
21622;DHT22;10973;46.706;12.340;2023-10-08T07:37:26;14.00;99.90
21622;DHT22;10973;46.706;12.340;2023-10-08T07:39:53;14.10;99.90
21622;DHT22;10973;46.706;12.340;2023-10-08T07:42:21;14.10;99.90
21622;DHT22;10973;46.706;12.340;2023-10-08T07:44:51;14.20;99.90
21622;DHT22;10973;46.706;12.340;2023-10-08T07:47:19;14.20;99.90
21622;DHT22;10973;46.706;12.340;2023-10-08T07:49:47;14.30;99.90
21622;DHT22;10973;46.706;12.340;2023-10-08T07:52:14;14.30;99.90
21622;DHT22;10973;46.706;12.340;2023-10-08T07:54:44;14.50;99.90
21622;DHT22;10973;46.706;12.340;2023-10-08T07:57:11;14.60;99.90
21622;DHT22;10973;46.706;12.340;2023-10-08T07:59:40;14.70;99.90
21622;DHT22;10973;46.706;12.340;2023-10-08T08:02:09;14.70;99.90
21622;DHT22;10973;46.706;12.340;2023-10-08T08:04:39;14.80;99.80
21622;DHT22;10973;46.706;12.340;2023-10-08T08:07:08;15.00;98.80
21622;DHT22;10973;46.706;12.340;2023-10-08T08:09:35;15.10;98.80
21622;DHT22;10973;46.706;12.340;2023-10-08T08:12:06;15.20;98.90
21622;DHT22;10973;46.706;12.340;2023-10-08T08:14:35;15.20;98.90
21622;DHT22;10973;46.706;12.340;2023-10-08T08:17:05;15.30;98.50
21622;DHT22;10973;46.706;12.340;2023-10-08T08:19:33;15.40;97.30
21622;DHT22;10973;46.706;12.340;2023-10-08T08:22:17;15.50;97.60
21622;DHT22;10973;46.706;12.340;2023-10-08T08:24:49;15.50;97.60
21622;DHT22;10973;46.706;12.340;2023-10-08T08:27:24;15.60;97.10
21622;DHT22;10973;46.706;12.340;2023-10-08T08:29:52;15.70;97.10
21622;DHT22;10973;46.706;12.340;2023-10-08T08:32:20;15.70;97.00
21622;DHT22;10973;46.706;12.340;2023-10-08T08:34:48;15.70;96.60
21622;DHT22;10973;46.706;12.340;2023-10-08T08:37:17;15.70;96.90
21622;DHT22;10973;46.706;12.340;2023-10-08T08:39:44;15.80;96.30
21622;DHT22;10973;46.706;12.340;2023-10-08T08:42:13;15.90;96.30
21622;DHT22;10973;46.706;12.340;2023-10-08T08:44:43;15.90;96.40
21622;DHT22;10973;46.706;12.340;2023-10-08T08:47:13;15.90;96.30
21622;DHT22;10973;46.706;12.340;2023-10-08T08:49:42;15.90;96.60
21622;DHT22;10973;46.706;12.340;2023-10-08T08:52:15;16.00;96.60
21622;DHT22;10973;46.706;12.340;2023-10-08T08:54:42;16.00;97.10
21622;DHT22;10973;46.706;12.340;2023-10-08T08:57:10;16.10;96.50
21622;DHT22;10973;46.706;12.340;2023-10-08T08:59:40;16.20;95.50
21622;DHT22;10973;46.706;12.340;2023-10-08T09:02:11;16.30;95.80
21622;DHT22;10973;46.706;12.340;2023-10-08T09:04:40;16.30;96.10
21622;DHT22;10973;46.706;12.340;2023-10-08T09:07:08;16.40;95.80
21622;DHT22;10973;46.706;12.340;2023-10-08T09:09:35;16.50;95.40
21622;DHT22;10973;46.706;12.340;2023-10-08T09:12:03;16.60;95.30
21622;DHT22;10973;46.706;12.340;2023-10-08T09:14:31;16.70;95.20
21622;DHT22;10973;46.706;12.340;2023-10-08T09:17:02;16.80;94.90
21622;DHT22;10973;46.706;12.340;2023-10-08T09:19:36;16.80;94.80
21622;DHT22;10973;46.706;12.340;2023-10-08T09:22:14;16.90;94.60
21622;DHT22;10973;46.706;12.340;2023-10-08T09:24:42;17.00;94.60
21622;DHT22;10973;46.706;12.340;2023-10-08T09:27:10;17.00;94.00
21622;DHT22;10973;46.706;12.340;2023-10-08T09:29:38;17.00;93.90
21622;DHT22;10973;46.706;12.340;2023-10-08T09:32:10;17.10;93.70
21622;DHT22;10973;46.706;12.340;2023-10-08T09:34:39;17.20;93.30
21622;DHT22;10973;46.706;12.340;2023-10-08T09:37:07;17.30;93.10
21622;DHT22;10973;46.706;12.340;2023-10-08T09:39:37;17.40;93.40
21622;DHT22;10973;46.706;12.340;2023-10-08T09:42:08;17.50;93.20
21622;DHT22;10973;46.706;12.340;2023-10-08T09:44:36;17.70;93.00
21622;DHT22;10973;46.706;12.340;2023-10-08T09:47:08;17.80;92.30
21622;DHT22;10973;46.706;12.340;2023-10-08T09:49:39;17.90;91.80
21622;DHT22;10973;46.706;12.340;2023-10-08T09:52:07;18.00;91.90
21622;DHT22;10973;46.706;12.340;2023-10-08T09:54:56;18.00;91.90
21622;DHT22;10973;46.706;12.340;2023-10-08T09:57:27;18.20;91.30
21622;DHT22;10973;46.706;12.340;2023-10-08T09:59:55;18.20;91.60
21622;DHT22;10973;46.706;12.340;2023-10-08T10:02:23;18.20;91.80
21622;DHT22;10973;46.706;12.340;2023-10-08T10:04:54;18.20;91.20
21622;DHT22;10973;46.706;12.340;2023-10-08T10:07:22;18.30;91.60
21622;DHT22;10973;46.706;12.340;2023-10-08T10:09:54;18.20;91.50
21622;DHT22;10973;46.706;12.340;2023-10-08T10:12:26;18.20;91.60
21622;DHT22;10973;46.706;12.340;2023-10-08T10:14:55;18.40;91.30
21622;DHT22;10973;46.706;12.340;2023-10-08T10:17:27;18.30;91.30
21622;DHT22;10973;46.706;12.340;2023-10-08T10:20:11;18.30;91.40
21622;DHT22;10973;46.706;12.340;2023-10-08T10:22:38;18.20;91.40
21622;DHT22;10973;46.706;12.340;2023-10-08T10:25:07;18.30;91.40
21622;DHT22;10973;46.706;12.340;2023-10-08T10:27:38;18.40;91.20
21622;DHT22;10973;46.706;12.340;2023-10-08T10:30:06;18.50;90.30
21622;DHT22;10973;46.706;12.340;2023-10-08T10:32:37;18.60;88.60
21622;DHT22;10973;46.706;12.340;2023-10-08T10:35:05;18.60;88.90
21622;DHT22;10973;46.706;12.340;2023-10-08T10:37:33;18.70;89.00
21622;DHT22;10973;46.706;12.340;2023-10-08T10:40:02;18.70;88.00
21622;DHT22;10973;46.706;12.340;2023-10-08T10:42:30;18.70;88.10
21622;DHT22;10973;46.706;12.340;2023-10-08T10:44:57;18.70;87.50
21622;DHT22;10973;46.706;12.340;2023-10-08T10:47:25;18.70;87.50
21622;DHT22;10973;46.706;12.340;2023-10-08T10:49:53;18.80;86.70
21622;DHT22;10973;46.706;12.340;2023-10-08T10:52:26;18.80;85.60
21622;DHT22;10973;46.706;12.340;2023-10-08T10:55:06;18.80;84.40
21622;DHT22;10973;46.706;12.340;2023-10-08T10:57:34;18.90;87.30
21622;DHT22;10973;46.706;12.340;2023-10-08T11:00:03;19.00;86.90
21622;DHT22;10973;46.706;12.340;2023-10-08T11:02:31;19.00;86.70
21622;DHT22;10973;46.706;12.340;2023-10-08T11:07:27;19.10;84.00
21622;DHT22;10973;46.706;12.340;2023-10-08T11:09:55;19.20;81.90
21622;DHT22;10973;46.706;12.340;2023-10-08T11:12:23;19.40;82.10
21622;DHT22;10973;46.706;12.340;2023-10-08T11:14:51;19.80;82.00
21622;DHT22;10973;46.706;12.340;2023-10-08T11:17:23;20.30;82.50
21622;DHT22;10973;46.706;12.340;2023-10-08T11:22:21;21.00;78.60
21622;DHT22;10973;46.706;12.340;2023-10-08T11:24:48;21.40;77.20
21622;DHT22;10973;46.706;12.340;2023-10-08T11:27:17;21.30;75.90
21622;DHT22;10973;46.706;12.340;2023-10-08T11:29:49;21.00;75.70
21622;DHT22;10973;46.706;12.340;2023-10-08T11:32:16;21.10;75.80
21622;DHT22;10973;46.706;12.340;2023-10-08T11:34:47;21.20;74.80
21622;DHT22;10973;46.706;12.340;2023-10-08T11:37:15;21.60;74.40
21622;DHT22;10973;46.706;12.340;2023-10-08T11:39:57;22.10;73.30
21622;DHT22;10973;46.706;12.340;2023-10-08T11:42:27;22.90;72.00
21622;DHT22;10973;46.706;12.340;2023-10-08T11:44:55;22.80;70.20
21622;DHT22;10973;46.706;12.340;2023-10-08T11:47:22;23.10;69.20
21622;DHT22;10973;46.706;12.340;2023-10-08T11:52:18;22.50;68.60
21622;DHT22;10973;46.706;12.340;2023-10-08T11:54:45;22.20;69.00
21622;DHT22;10973;46.706;12.340;2023-10-08T11:57:13;22.20;68.90
21622;DHT22;10973;46.706;12.340;2023-10-08T11:59:40;22.40;68.50
21622;DHT22;10973;46.706;12.340;2023-10-08T12:02:08;23.30;67.50
21622;DHT22;10973;46.706;12.340;2023-10-08T12:07:04;24.30;63.20
21622;DHT22;10973;46.706;12.340;2023-10-08T12:09:32;23.80;63.40
21622;DHT22;10973;46.706;12.340;2023-10-08T12:12:00;23.90;63.10
21622;DHT22;10973;46.706;12.340;2023-10-08T12:14:27;24.30;62.90
21622;DHT22;10973;46.706;12.340;2023-10-08T12:16:55;24.20;62.50
21622;DHT22;10973;46.706;12.340;2023-10-08T12:19:23;23.80;61.50
21622;DHT22;10973;46.706;12.340;2023-10-08T12:21:53;23.70;63.10
21622;DHT22;10973;46.706;12.340;2023-10-08T12:24:21;23.20;62.50
21622;DHT22;10973;46.706;12.340;2023-10-08T12:26:48;23.20;63.00
21622;DHT22;10973;46.706;12.340;2023-10-08T12:29:16;23.10;62.80
21622;DHT22;10973;46.706;12.340;2023-10-08T12:31:43;22.80;63.20
21622;DHT22;10973;46.706;12.340;2023-10-08T12:34:10;22.90;64.00
21622;DHT22;10973;46.706;12.340;2023-10-08T12:36:38;22.90;64.10
21622;DHT22;10973;46.706;12.340;2023-10-08T12:39:05;22.60;64.70
21622;DHT22;10973;46.706;12.340;2023-10-08T12:41:33;22.40;63.90
21622;DHT22;10973;46.706;12.340;2023-10-08T12:44:01;22.30;65.00
21622;DHT22;10973;46.706;12.340;2023-10-08T12:46:28;22.20;64.20
21622;DHT22;10973;46.706;12.340;2023-10-08T12:48:56;22.20;65.10
21622;DHT22;10973;46.706;12.340;2023-10-08T12:51:24;22.00;64.90
21622;DHT22;10973;46.706;12.340;2023-10-08T12:53:53;22.00;63.90
21622;DHT22;10973;46.706;12.340;2023-10-08T12:56:22;22.10;64.90
21622;DHT22;10973;46.706;12.340;2023-10-08T12:58:49;22.00;64.90
21622;DHT22;10973;46.706;12.340;2023-10-08T13:01:17;21.90;65.20
21622;DHT22;10973;46.706;12.340;2023-10-08T13:03:45;21.80;65.40
21622;DHT22;10973;46.706;12.340;2023-10-08T13:06:15;21.80;66.70
21622;DHT22;10973;46.706;12.340;2023-10-08T13:08:44;21.70;65.80
21622;DHT22;10973;46.706;12.340;2023-10-08T13:11:12;21.70;66.50
21622;DHT22;10973;46.706;12.340;2023-10-08T13:13:40;21.50;66.30
21622;DHT22;10973;46.706;12.340;2023-10-08T13:16:07;21.40;66.90
21622;DHT22;10973;46.706;12.340;2023-10-08T13:18:35;21.20;70.00
21622;DHT22;10973;46.706;12.340;2023-10-08T13:21:04;21.10;69.90
21622;DHT22;10973;46.706;12.340;2023-10-08T13:23:31;20.90;69.20
21622;DHT22;10973;46.706;12.340;2023-10-08T13:25:59;20.80;69.00
21622;DHT22;10973;46.706;12.340;2023-10-08T13:28:27;20.70;69.40
21622;DHT22;10973;46.706;12.340;2023-10-08T13:30:54;20.60;70.30
21622;DHT22;10973;46.706;12.340;2023-10-08T13:33:22;20.50;71.10
21622;DHT22;10973;46.706;12.340;2023-10-08T13:35:50;20.40;69.90
21622;DHT22;10973;46.706;12.340;2023-10-08T13:38:37;20.40;70.50
21622;DHT22;10973;46.706;12.340;2023-10-08T13:41:05;20.50;72.40
21622;DHT22;10973;46.706;12.340;2023-10-08T13:43:33;20.40;71.90
21622;DHT22;10973;46.706;12.340;2023-10-08T13:46:03;20.40;70.40
21622;DHT22;10973;46.706;12.340;2023-10-08T13:48:32;20.30;73.50
21622;DHT22;10973;46.706;12.340;2023-10-08T13:51:03;20.20;73.40
21622;DHT22;10973;46.706;12.340;2023-10-08T13:53:32;20.10;73.10
21622;DHT22;10973;46.706;12.340;2023-10-08T13:56:00;20.10;73.40
21622;DHT22;10973;46.706;12.340;2023-10-08T13:58:28;20.00;71.50
21622;DHT22;10973;46.706;12.340;2023-10-08T14:00:59;20.00;70.10
21622;DHT22;10973;46.706;12.340;2023-10-08T14:03:27;19.90;69.80
21622;DHT22;10973;46.706;12.340;2023-10-08T14:05:55;19.90;69.80
21622;DHT22;10973;46.706;12.340;2023-10-08T14:08:23;19.90;70.20
21622;DHT22;10973;46.706;12.340;2023-10-08T14:10:50;19.80;71.10
21622;DHT22;10973;46.706;12.340;2023-10-08T14:13:18;19.80;71.80
21622;DHT22;10973;46.706;12.340;2023-10-08T14:15:46;19.70;71.90
21622;DHT22;10973;46.706;12.340;2023-10-08T14:18:15;19.70;71.90
21622;DHT22;10973;46.706;12.340;2023-10-08T14:20:45;19.70;72.20
21622;DHT22;10973;46.706;12.340;2023-10-08T14:23:13;19.70;72.90
21622;DHT22;10973;46.706;12.340;2023-10-08T14:25:40;19.60;72.50
21622;DHT22;10973;46.706;12.340;2023-10-08T14:28:08;19.60;72.40
21622;DHT22;10973;46.706;12.340;2023-10-08T14:30:36;19.60;73.00
21622;DHT22;10973;46.706;12.340;2023-10-08T14:33:04;19.60;73.70
21622;DHT22;10973;46.706;12.340;2023-10-08T14:35:31;19.50;72.80
21622;DHT22;10973;46.706;12.340;2023-10-08T14:38:00;19.50;73.10
21622;DHT22;10973;46.706;12.340;2023-10-08T14:40:28;19.40;73.30
21622;DHT22;10973;46.706;12.340;2023-10-08T14:42:56;19.40;73.90
21622;DHT22;10973;46.706;12.340;2023-10-08T14:45:28;19.40;73.80
21622;DHT22;10973;46.706;12.340;2023-10-08T14:47:58;19.30;74.30
21622;DHT22;10973;46.706;12.340;2023-10-08T14:50:26;19.30;74.80
21622;DHT22;10973;46.706;12.340;2023-10-08T14:52:55;19.20;74.20
21622;DHT22;10973;46.706;12.340;2023-10-08T14:55:23;19.20;74.60
21622;DHT22;10973;46.706;12.340;2023-10-08T14:57:52;19.20;75.10
21622;DHT22;10973;46.706;12.340;2023-10-08T15:00:21;19.10;74.60
21622;DHT22;10973;46.706;12.340;2023-10-08T15:02:53;19.10;74.60
21622;DHT22;10973;46.706;12.340;2023-10-08T15:05:22;19.00;73.80
21622;DHT22;10973;46.706;12.340;2023-10-08T15:07:52;19.00;74.20
21622;DHT22;10973;46.706;12.340;2023-10-08T15:10:20;19.00;74.20
21622;DHT22;10973;46.706;12.340;2023-10-08T15:12:48;19.00;74.10
21622;DHT22;10973;46.706;12.340;2023-10-08T15:15:19;19.00;74.70
21622;DHT22;10973;46.706;12.340;2023-10-08T15:17:48;19.00;74.70
21622;DHT22;10973;46.706;12.340;2023-10-08T15:20:17;19.00;74.30
21622;DHT22;10973;46.706;12.340;2023-10-08T15:22:46;18.90;74.40
21622;DHT22;10973;46.706;12.340;2023-10-08T15:25:18;19.00;74.40
21622;DHT22;10973;46.706;12.340;2023-10-08T15:27:46;19.00;74.30
21622;DHT22;10973;46.706;12.340;2023-10-08T15:30:15;19.00;75.10
21622;DHT22;10973;46.706;12.340;2023-10-08T15:32:48;18.90;74.90
21622;DHT22;10973;46.706;12.340;2023-10-08T15:35:21;18.90;74.90
21622;DHT22;10973;46.706;12.340;2023-10-08T15:37:59;18.90;74.80